createdAt,value
2018-11-03T00:01:14.335Z,10.73
2018-11-03T00:03:42.366Z,13.03
2018-11-03T00:06:10.695Z,17.17
2018-11-03T00:08:38.768Z,15.43
2018-11-03T00:11:06.812Z,13.27
2018-11-03T00:13:34.879Z,11.13
2018-11-03T00:16:02.921Z,12.23
2018-11-03T00:18:30.952Z,17.47
2018-11-03T00:20:59.343Z,13.37
2018-11-03T00:23:27.411Z,14.27
2018-11-03T00:25:55.566Z,16.60
2018-11-03T00:28:23.750Z,21.43
2018-11-03T00:30:52.516Z,17.67
2018-11-03T00:33:20.606Z,14.93
2018-11-03T00:35:48.725Z,13.43
2018-11-03T00:38:18.149Z,15.10
2018-11-03T00:40:46.164Z,12.93
2018-11-03T00:43:14.365Z,18.60
2018-11-03T00:45:42.377Z,16.70
2018-11-03T00:48:10.701Z,15.60
2018-11-03T00:50:39.666Z,16.97
2018-11-03T00:53:07.845Z,22.77
2018-11-03T00:55:35.902Z,19.87
2018-11-03T00:58:03.912Z,16.03
2018-11-03T01:00:32.302Z,13.07
2018-11-03T01:03:00.542Z,15.07
2018-11-03T01:05:28.650Z,14.40
2018-11-03T01:07:56.725Z,15.73
2018-11-03T01:10:25.163Z,14.33
2018-11-03T01:12:53.192Z,17.60
2018-11-03T01:15:21.295Z,23.83
2018-11-03T01:17:49.487Z,18.17
2018-11-03T01:20:18.123Z,14.77
2018-11-03T01:22:46.279Z,15.50
2018-11-03T01:25:14.372Z,15.93
2018-11-03T01:27:42.440Z,18.60
2018-11-03T01:30:13.683Z,16.23
2018-11-03T01:32:41.812Z,24.43
2018-11-03T01:35:10.064Z,15.13
2018-11-03T01:37:38.888Z,21.83
2018-11-03T01:40:07.642Z,23.23
2018-11-03T01:42:35.802Z,16.30
2018-11-03T01:45:03.997Z,17.27
2018-11-03T01:47:32.170Z,20.40
2018-11-03T01:50:00.432Z,23.63
2018-11-03T01:52:28.652Z,18.43
2018-11-03T01:54:56.672Z,22.20
2018-11-03T01:57:24.690Z,17.53
2018-11-03T01:59:52.762Z,21.53
2018-11-03T02:02:20.791Z,17.90
2018-11-03T02:04:48.870Z,18.23
2018-11-03T02:07:17.175Z,16.23
2018-11-03T02:09:45.218Z,22.63
2018-11-03T02:12:13.278Z,18.63
2018-11-03T02:14:41.388Z,20.70
2018-11-03T02:17:09.416Z,22.33
2018-11-03T02:19:39.146Z,31.67
2018-11-03T02:22:07.729Z,20.40
2018-11-03T02:24:35.812Z,20.17
2018-11-03T02:27:04.075Z,21.60
2018-11-03T02:29:32.111Z,18.27
2018-11-03T02:32:00.157Z,16.83
2018-11-03T02:34:28.282Z,19.30
2018-11-03T02:36:57.045Z,20.90
2018-11-03T02:39:25.242Z,21.00
2018-11-03T02:41:53.574Z,19.00
2018-11-03T02:44:21.699Z,19.63
2018-11-03T02:46:49.735Z,21.73
2018-11-03T02:49:17.794Z,18.67
2018-11-03T02:51:46.106Z,21.67
2018-11-03T02:54:14.135Z,24.80
2018-11-03T02:56:43.112Z,24.27
2018-11-03T02:59:11.215Z,24.60
2018-11-03T03:02:42.768Z,19.77
2018-11-03T03:05:11.242Z,21.03
2018-11-03T03:07:39.461Z,24.20
2018-11-03T03:10:08.890Z,19.10
2018-11-03T03:12:37.350Z,20.67
2018-11-03T03:15:06.455Z,22.93
2018-11-03T03:17:34.558Z,28.20
2018-11-03T03:20:02.598Z,20.73
2018-11-03T03:22:30.648Z,23.57
2018-11-03T03:24:58.886Z,23.67
2018-11-03T03:27:27.189Z,23.97
2018-11-03T03:29:55.274Z,20.47
2018-11-03T03:32:23.367Z,26.17
2018-11-03T03:34:51.503Z,26.97
2018-11-03T03:37:19.578Z,23.77
2018-11-03T03:39:47.772Z,21.83
2018-11-03T03:42:15.803Z,26.20
2018-11-03T03:44:43.923Z,25.10
2018-11-03T03:47:11.998Z,26.60
2018-11-03T03:49:40.043Z,24.53
2018-11-03T03:52:08.315Z,22.13
2018-11-03T03:54:36.610Z,22.83
2018-11-03T03:57:05.308Z,25.37
2018-11-03T03:59:33.365Z,26.27
2018-11-03T04:02:01.451Z,22.60
2018-11-03T04:04:29.602Z,28.27
2018-11-03T04:06:57.987Z,24.90
2018-11-03T04:09:26.111Z,23.07
2018-11-03T04:11:54.255Z,22.57
2018-11-03T04:14:22.318Z,20.80
2018-11-03T04:16:50.510Z,22.10
2018-11-03T04:19:18.551Z,21.10
2018-11-03T04:21:46.610Z,27.37
2018-11-03T04:24:14.730Z,23.10
2018-11-03T04:26:43.161Z,21.77
2018-11-03T04:29:11.384Z,24.63
2018-11-03T04:31:39.557Z,24.50
2018-11-03T04:34:07.598Z,24.63
2018-11-03T04:36:35.708Z,25.20
2018-11-03T04:39:04.733Z,26.50
2018-11-03T04:41:32.889Z,28.00
2018-11-03T04:44:01.117Z,26.13
2018-11-03T04:46:29.187Z,23.77
2018-11-03T04:49:01.951Z,22.10
2018-11-03T04:51:31.415Z,22.93
2018-11-03T04:54:00.178Z,22.30
2018-11-03T04:56:28.326Z,24.43
2018-11-03T04:58:57.141Z,20.90
2018-11-03T05:01:25.277Z,22.67
2018-11-03T05:03:53.400Z,24.10
2018-11-03T05:06:21.727Z,28.13
2018-11-03T05:08:49.805Z,22.47
2018-11-03T05:11:17.814Z,24.43
2018-11-03T05:13:45.894Z,26.17
2018-11-03T05:16:13.912Z,25.03
2018-11-03T05:18:42.127Z,24.40
2018-11-03T05:21:10.316Z,26.47
2018-11-03T05:23:38.227Z,24.73
2018-11-03T05:26:06.288Z,27.73
2018-11-03T05:28:34.874Z,24.10
2018-11-03T05:31:03.075Z,22.80
2018-11-03T05:33:31.103Z,25.80
2018-11-03T05:35:59.203Z,29.20
2018-11-03T05:38:27.263Z,29.77
2018-11-03T05:40:55.272Z,27.93
2018-11-03T05:43:23.411Z,25.27
2018-11-03T05:45:51.431Z,26.77
2018-11-03T05:48:19.516Z,25.03
2018-11-03T05:50:47.613Z,22.77
2018-11-03T05:53:15.699Z,26.67
2018-11-03T05:55:44.048Z,26.30
2018-11-03T05:58:12.086Z,25.50
2018-11-03T06:00:40.098Z,22.27
2018-11-03T06:03:08.135Z,21.83
2018-11-03T06:05:36.401Z,23.70
2018-11-03T06:08:04.426Z,29.30
2018-11-03T06:10:32.600Z,23.00
2018-11-03T06:13:00.894Z,24.90
2018-11-03T06:15:29.033Z,26.13
2018-11-03T06:17:57.142Z,28.37
2018-11-03T06:20:25.285Z,25.80
2018-11-03T06:22:53.425Z,30.00
2018-11-03T06:25:21.409Z,26.97
2018-11-03T06:27:49.767Z,24.07
2018-11-03T06:30:17.790Z,21.93
2018-11-03T06:32:45.815Z,29.47
2018-11-03T06:35:13.934Z,24.80
2018-11-03T06:37:41.899Z,32.33
2018-11-03T06:40:10.073Z,32.27
2018-11-03T06:42:38.752Z,23.23
2018-11-03T06:45:07.959Z,23.87
2018-11-03T06:47:36.171Z,28.63
2018-11-03T06:50:05.684Z,28.10
2018-11-03T06:52:33.852Z,25.90
2018-11-03T06:55:01.891Z,30.53
2018-11-03T06:57:30.154Z,28.50
2018-11-03T06:59:58.195Z,26.00
2018-11-03T07:02:26.331Z,28.80
2018-11-03T07:04:54.577Z,23.57
2018-11-03T07:07:22.868Z,26.77
2018-11-03T07:09:50.904Z,26.53
2018-11-03T07:12:19.164Z,28.90
2018-11-03T07:14:47.117Z,23.50
2018-11-03T07:17:15.350Z,26.90
2018-11-03T07:19:43.455Z,24.00
2018-11-03T07:22:11.889Z,26.07
2018-11-03T07:24:39.940Z,21.00
2018-11-03T07:27:08.136Z,29.73
2018-11-03T07:29:36.468Z,23.70
2018-11-03T07:32:04.496Z,22.87
2018-11-03T07:34:32.527Z,21.17
2018-11-03T07:37:01.146Z,26.83
2018-11-03T07:39:29.296Z,26.50
2018-11-03T07:41:57.308Z,26.60
2018-11-03T07:44:25.457Z,29.83
2018-11-03T07:47:56.590Z,25.87
2018-11-03T07:50:24.587Z,22.80
2018-11-03T07:52:52.644Z,29.23
2018-11-03T07:55:20.695Z,25.47
2018-11-03T07:57:49.208Z,23.20
2018-11-03T08:00:17.851Z,22.73
2018-11-03T08:02:45.831Z,24.70
2018-11-03T08:05:14.034Z,25.90
2018-11-03T08:07:42.082Z,22.05
2018-11-03T08:10:11.291Z,22.47
2018-11-03T08:12:39.429Z,21.73
2018-11-03T08:15:08.838Z,26.30
2018-11-03T08:17:37.142Z,24.87
2018-11-03T08:20:06.577Z,23.50
2018-11-03T08:22:34.619Z,26.80
2018-11-03T08:25:02.858Z,22.22
2018-11-03T08:27:31.061Z,24.50
2018-11-03T08:29:59.117Z,22.30
2018-11-03T08:32:27.323Z,22.70
2018-11-03T08:34:55.375Z,26.50
2018-11-03T08:37:23.428Z,34.50
2018-11-03T08:39:51.604Z,27.37
2018-11-03T08:42:19.804Z,24.30
2018-11-03T08:44:48.009Z,30.80
2018-11-03T08:47:16.474Z,25.85
2018-11-03T08:49:44.671Z,25.15
2018-11-03T08:52:12.707Z,23.67
2018-11-03T08:54:41.116Z,26.20
2018-11-03T08:57:09.365Z,28.85
2018-11-03T08:59:37.720Z,20.60
2018-11-03T09:02:05.896Z,26.37
2018-11-03T09:04:33.952Z,29.45
2018-11-03T09:07:02.050Z,24.60
2018-11-03T09:09:30.175Z,29.05
2018-11-03T09:11:58.209Z,27.45
2018-11-03T09:14:26.311Z,25.35
2018-11-03T09:16:54.375Z,27.07
2018-11-03T09:19:22.611Z,24.13
2018-11-03T09:21:50.758Z,22.67
2018-11-03T09:24:18.781Z,25.20
2018-11-03T09:26:53.391Z,24.15
2018-11-03T09:29:22.068Z,39.08
2018-11-03T09:31:50.173Z,27.22
2018-11-03T09:34:18.276Z,25.80
2018-11-03T09:36:46.410Z,27.00
2018-11-03T09:39:16.151Z,29.87
2018-11-03T09:41:44.226Z,31.27
2018-11-03T09:44:12.347Z,26.02
2018-11-03T09:46:40.404Z,25.55
2018-11-03T09:49:08.679Z,26.60
2018-11-03T09:51:36.739Z,28.20
2018-11-03T09:54:04.842Z,26.07
2018-11-03T09:56:32.935Z,27.82
2018-11-03T09:59:00.981Z,25.60
2018-11-03T10:01:29.269Z,24.07
2018-11-03T10:03:57.972Z,22.48
2018-11-03T10:06:26.020Z,33.95
2018-11-03T10:08:54.035Z,23.05
2018-11-03T10:11:22.354Z,28.77
2018-11-03T10:13:50.418Z,26.68
2018-11-03T10:16:18.495Z,26.97
2018-11-03T10:18:46.666Z,26.23
2018-11-03T10:21:14.743Z,18.80
2018-11-03T10:23:42.855Z,20.82
2018-11-03T10:26:11.082Z,28.87
2018-11-03T10:28:39.151Z,26.45
2018-11-03T10:31:07.194Z,18.37
2018-11-03T10:33:35.274Z,22.95
2018-11-03T10:36:03.259Z,20.62
2018-11-03T10:38:31.428Z,21.23
2018-11-03T10:40:59.618Z,21.15
2018-11-03T10:43:27.639Z,13.40
2018-11-03T10:45:55.680Z,19.75
2018-11-03T10:48:23.776Z,17.20
2018-11-03T10:50:51.999Z,18.65
2018-11-03T10:53:20.076Z,18.48
2018-11-03T10:55:48.150Z,16.57
2018-11-03T10:58:16.206Z,21.75
2018-11-03T11:00:49.532Z,13.57
2018-11-03T11:03:23.293Z,16.77
2018-11-03T11:05:56.944Z,12.47
2018-11-03T11:08:30.895Z,11.28
2018-11-03T11:11:04.844Z,13.85
2018-11-03T11:13:34.616Z,13.08
2018-11-03T11:16:02.708Z,20.10
2018-11-03T11:18:30.899Z,17.30
2018-11-03T11:20:58.941Z,20.20
2018-11-03T11:23:27.063Z,11.70
2018-11-03T11:25:55.112Z,16.00
2018-11-03T11:28:23.222Z,12.05
2018-11-03T11:30:51.382Z,15.08
2018-11-03T11:33:19.520Z,12.18
2018-11-03T11:35:47.840Z,13.88
2018-11-03T11:38:16.228Z,8.10
2018-11-03T11:40:44.551Z,12.55
2018-11-03T11:43:13.543Z,11.45
2018-11-03T11:45:41.740Z,12.03
2018-11-03T11:48:09.782Z,10.23
2018-11-03T11:50:38.669Z,11.08
2018-11-03T11:53:07.165Z,19.40
2018-11-03T11:55:35.199Z,12.75
2018-11-03T11:58:03.251Z,10.20
2018-11-03T12:00:31.661Z,10.05
2018-11-03T12:02:59.693Z,10.72
2018-11-03T12:05:28.238Z,11.38
2018-11-03T12:07:56.318Z,12.65
2018-11-03T12:10:24.381Z,8.73
2018-11-03T12:12:52.416Z,16.00
2018-11-03T12:15:20.871Z,9.25
2018-11-03T12:17:48.903Z,8.00
2018-11-03T12:20:16.942Z,8.80
2018-11-03T12:22:45.143Z,9.60
2018-11-03T12:25:13.198Z,10.00
2018-11-03T12:27:41.388Z,12.45
2018-11-03T12:30:12.355Z,8.65
2018-11-03T12:32:40.590Z,9.38
2018-11-03T12:35:08.883Z,8.78
2018-11-03T12:37:37.663Z,8.50
2018-11-03T12:40:07.859Z,12.90
2018-11-03T12:42:36.090Z,8.80
2018-11-03T12:45:04.596Z,11.65
2018-11-03T12:47:33.103Z,8.83
2018-11-03T12:50:02.044Z,15.03
2018-11-03T12:52:31.211Z,14.25
2018-11-03T12:55:00.234Z,13.00
2018-11-03T12:57:28.283Z,9.43
2018-11-03T12:59:56.339Z,10.48
2018-11-03T13:02:24.393Z,13.00
2018-11-03T13:04:52.812Z,20.32
2018-11-03T13:07:21.088Z,9.78
2018-11-03T13:09:49.592Z,11.93
2018-11-03T13:12:17.828Z,9.00
2018-11-03T13:14:45.743Z,13.55
2018-11-03T13:17:13.802Z,14.90
2018-11-03T13:19:41.817Z,9.20
2018-11-03T13:22:09.838Z,10.98
2018-11-03T13:24:37.890Z,13.18
2018-11-03T13:27:05.953Z,8.80
2018-11-03T13:29:34.011Z,8.48
2018-11-03T13:32:02.323Z,7.22
2018-11-03T13:34:30.334Z,7.97
2018-11-03T13:36:58.351Z,12.73
2018-11-03T13:39:26.409Z,10.43
2018-11-03T13:41:54.531Z,10.20
2018-11-03T13:44:22.544Z,8.80
2018-11-03T13:46:50.625Z,10.58
2018-11-03T13:49:18.656Z,11.73
2018-11-03T13:51:46.655Z,14.58
2018-11-03T13:54:14.962Z,12.13
2018-11-03T13:56:43.593Z,8.18
2018-11-03T13:59:11.637Z,10.50
2018-11-03T14:01:40.288Z,11.53
2018-11-03T14:04:09.041Z,21.87
2018-11-03T14:06:37.039Z,14.68
2018-11-03T14:09:06.777Z,11.22
2018-11-03T14:11:35.066Z,11.50
2018-11-03T14:14:03.764Z,12.33
2018-11-03T14:16:31.827Z,11.50
2018-11-03T14:18:59.836Z,8.30
2018-11-03T14:21:27.892Z,8.30
2018-11-03T14:23:56.035Z,9.58
2018-11-03T14:26:24.108Z,4.70
2018-11-03T14:28:52.168Z,11.83
2018-11-03T14:31:20.412Z,6.65
2018-11-03T14:33:48.496Z,7.40
2018-11-03T14:36:16.631Z,7.33
2018-11-03T14:38:45.128Z,7.95
2018-11-03T14:41:13.199Z,4.90
2018-11-03T14:43:41.303Z,10.68
2018-11-03T14:46:09.351Z,12.75
2018-11-03T14:48:37.403Z,10.53
2018-11-03T14:51:05.838Z,6.65
2018-11-03T14:53:34.168Z,8.10
2018-11-03T14:56:02.169Z,6.63
2018-11-03T14:58:30.224Z,7.17
2018-11-03T15:00:58.420Z,8.45
2018-11-03T15:03:26.447Z,12.07
2018-11-03T15:05:54.664Z,9.80
2018-11-03T15:08:22.859Z,9.97
2018-11-03T15:10:51.143Z,7.43
2018-11-03T15:13:19.206Z,12.83
2018-11-03T15:15:47.347Z,9.40
2018-11-03T15:18:15.611Z,9.97
2018-11-03T15:20:43.675Z,8.60
2018-11-03T15:23:11.760Z,12.67
2018-11-03T15:25:39.827Z,7.80
2018-11-03T15:28:07.974Z,9.73
2018-11-03T15:30:36.068Z,6.37
2018-11-03T15:33:04.120Z,9.40
2018-11-03T15:35:32.410Z,6.40
2018-11-03T15:38:00.929Z,4.37
2018-11-03T15:40:29.078Z,8.80
2018-11-03T15:42:57.141Z,4.87
2018-11-03T15:45:25.323Z,8.43
2018-11-03T15:47:53.400Z,8.23
2018-11-03T15:50:21.426Z,8.13
2018-11-03T15:52:49.463Z,8.93
2018-11-03T15:55:17.508Z,10.50
2018-11-03T15:57:45.606Z,13.43
2018-11-03T16:00:15.961Z,18.20
2018-11-03T16:02:44.258Z,11.10
2018-11-03T16:05:12.524Z,9.60
2018-11-03T16:07:40.579Z,7.03
2018-11-03T16:10:10.028Z,9.10
2018-11-03T16:12:38.653Z,9.13
2018-11-03T16:15:08.218Z,12.60
2018-11-03T16:17:36.266Z,9.80
2018-11-03T16:20:04.558Z,14.53
2018-11-03T16:22:33.299Z,8.50
2018-11-03T16:25:01.360Z,9.90
2018-11-03T16:27:29.394Z,7.70
2018-11-03T16:29:57.417Z,13.63
2018-11-03T16:32:25.994Z,8.83
2018-11-03T16:34:54.548Z,12.43
2018-11-03T16:37:22.640Z,13.57
2018-11-03T16:39:50.795Z,13.80
2018-11-03T16:42:19.756Z,12.57
2018-11-03T16:44:47.769Z,11.90
2018-11-03T16:47:15.920Z,23.87
2018-11-03T16:49:43.932Z,11.60
2018-11-03T16:52:11.952Z,15.23
2018-11-03T16:54:40.104Z,9.53
2018-11-03T16:57:08.174Z,13.57
2018-11-03T16:59:36.182Z,12.13
2018-11-03T17:02:04.543Z,14.43
2018-11-03T17:04:32.581Z,14.93
2018-11-03T17:07:01.442Z,10.23
2018-11-03T17:09:29.384Z,14.03
2018-11-03T17:11:57.614Z,21.33
2018-11-03T17:14:25.796Z,14.77
2018-11-03T17:16:53.826Z,12.30
2018-11-03T17:19:21.892Z,21.57
2018-11-03T17:21:49.935Z,20.43
2018-11-03T17:24:18.368Z,11.00
2018-11-03T17:26:46.483Z,18.30
2018-11-03T17:29:14.547Z,17.33
2018-11-03T17:31:42.609Z,18.20
2018-11-03T17:34:10.735Z,14.50
2018-11-03T17:36:39.050Z,14.87
2018-11-03T17:39:09.048Z,19.20
2018-11-03T17:41:37.148Z,20.93
2018-11-03T17:44:05.574Z,13.40
2018-11-03T17:46:33.604Z,13.20
2018-11-03T17:49:01.871Z,16.27
2018-11-03T17:51:29.951Z,13.57
2018-11-03T17:53:58.122Z,17.10
2018-11-03T17:56:26.179Z,17.70
2018-11-03T17:58:54.218Z,21.73
2018-11-03T18:01:22.434Z,18.73
2018-11-03T18:04:21.331Z,17.50
2018-11-03T18:06:49.431Z,15.57
2018-11-03T18:09:17.482Z,14.80
2018-11-03T18:11:45.502Z,13.57
2018-11-03T18:14:13.559Z,19.23
2018-11-03T18:16:42.408Z,27.70
2018-11-03T18:19:10.578Z,13.77
2018-11-03T18:21:38.865Z,11.23
2018-11-03T18:24:06.906Z,21.57
2018-11-03T18:26:35.417Z,19.77
2018-11-03T18:29:03.471Z,16.30
2018-11-03T18:31:31.480Z,21.33
2018-11-03T18:33:59.666Z,25.00
2018-11-03T18:36:27.926Z,21.47
2018-11-03T18:38:55.977Z,20.90
2018-11-03T18:41:24.130Z,18.03
2018-11-03T18:43:52.224Z,24.30
2018-11-03T18:46:20.517Z,17.40
2018-11-03T18:48:48.582Z,18.27
2018-11-03T18:51:16.744Z,30.68
2018-11-03T18:53:44.796Z,20.00
2018-11-03T18:56:12.851Z,17.33
2018-11-03T18:58:41.257Z,21.10
2018-11-03T19:01:09.310Z,22.80
2018-11-03T19:03:37.366Z,18.53
2018-11-03T19:06:05.975Z,18.33
2018-11-03T19:08:34.218Z,16.80
2018-11-03T19:11:02.333Z,20.27
2018-11-03T19:13:30.732Z,21.20
2018-11-03T19:15:58.984Z,15.47
2018-11-03T19:18:27.238Z,21.57
2018-11-03T19:20:55.287Z,20.50
2018-11-03T19:23:23.673Z,26.57
2018-11-03T19:25:51.681Z,19.43
2018-11-03T19:28:19.838Z,18.93
2018-11-03T19:30:47.910Z,20.73
2018-11-03T19:33:15.939Z,25.83
2018-11-03T19:35:44.056Z,17.97
2018-11-03T19:38:12.224Z,19.93
2018-11-03T19:40:40.402Z,18.70
2018-11-03T19:43:08.465Z,15.00
2018-11-03T19:45:36.484Z,29.33
2018-11-03T19:48:04.707Z,21.63
2018-11-03T19:50:33.035Z,21.40
2018-11-03T19:53:01.341Z,21.27
2018-11-03T19:55:29.371Z,26.00
2018-11-03T19:57:57.527Z,17.67
2018-11-03T20:00:27.968Z,29.03
2018-11-03T20:02:56.003Z,29.67
2018-11-03T20:05:24.091Z,18.50
2018-11-03T20:07:52.125Z,22.93
2018-11-03T20:10:20.569Z,21.23
2018-11-03T20:12:48.596Z,27.93
2018-11-03T20:15:16.679Z,24.73
2018-11-03T20:17:44.729Z,22.07
2018-11-03T20:20:13.955Z,21.03
2018-11-03T20:22:41.982Z,26.67
2018-11-03T20:25:11.320Z,21.77
2018-11-03T20:27:39.380Z,26.37
2018-11-03T20:30:09.603Z,23.00
2018-11-03T20:32:37.680Z,30.80
2018-11-03T20:35:05.787Z,23.97
2018-11-03T20:37:34.060Z,26.83
2018-11-03T20:40:02.217Z,24.53
2018-11-03T20:42:30.587Z,22.90
2018-11-03T20:44:58.652Z,19.97
2018-11-03T20:47:26.710Z,33.20
2018-11-03T20:49:54.824Z,25.47
2018-11-03T20:52:22.871Z,31.90
2018-11-03T20:54:50.971Z,19.10
2018-11-03T20:57:18.980Z,19.97
2018-11-03T20:59:47.639Z,25.27
2018-11-03T21:02:15.663Z,20.17
2018-11-03T21:04:43.835Z,18.33
2018-11-03T21:07:11.923Z,24.53
2018-11-03T21:09:39.967Z,24.70
2018-11-03T21:12:08.036Z,20.53
2018-11-03T21:14:36.138Z,19.07
2018-11-03T21:17:04.146Z,24.43
2018-11-03T21:19:32.163Z,15.90
2018-11-03T21:22:01.106Z,27.03
2018-11-03T21:24:29.135Z,22.20
2018-11-03T21:26:57.431Z,26.33
2018-11-03T21:29:25.688Z,18.77
2018-11-03T21:31:53.768Z,27.30
2018-11-03T21:34:21.779Z,25.87
2018-11-03T21:36:49.958Z,24.20
2018-11-03T21:39:18.007Z,32.77
2018-11-03T21:41:46.062Z,22.47
2018-11-03T21:44:14.130Z,22.80
2018-11-03T21:46:42.258Z,21.37
2018-11-03T21:49:10.206Z,20.93
2018-11-03T21:51:38.733Z,19.87
2018-11-03T21:54:07.592Z,21.33
2018-11-03T21:56:35.713Z,18.97
2018-11-03T21:59:03.871Z,27.07
2018-11-03T22:01:31.904Z,21.77
2018-11-03T22:03:59.998Z,17.93
2018-11-03T22:06:28.130Z,17.80
2018-11-03T22:08:56.131Z,22.27
2018-11-03T22:11:24.155Z,14.28
2018-11-03T22:13:52.279Z,19.57
2018-11-03T22:16:20.275Z,19.40
2018-11-03T22:18:48.319Z,23.77
2018-11-03T22:21:16.376Z,36.37
2018-11-03T22:23:44.670Z,21.13
2018-11-03T22:26:13.051Z,23.80
2018-11-03T22:28:41.539Z,23.53
2018-11-03T22:31:09.552Z,22.27
2018-11-03T22:33:37.666Z,19.53
2018-11-03T22:36:05.888Z,15.50
2018-11-03T22:38:34.047Z,20.83
2018-11-03T22:41:02.118Z,21.77
2018-11-03T22:43:30.204Z,26.27
2018-11-03T22:45:58.358Z,24.53
2018-11-03T22:48:26.399Z,24.43
2018-11-03T22:50:54.490Z,18.57
2018-11-03T22:53:22.558Z,20.20
2018-11-03T22:55:50.671Z,23.33
2018-11-03T22:58:18.857Z,21.30
2018-11-03T23:00:52.306Z,18.63
2018-11-03T23:03:20.370Z,28.40
2018-11-03T23:05:48.430Z,15.00
2018-11-03T23:08:16.447Z,19.70
2018-11-03T23:10:44.815Z,21.73
2018-11-03T23:13:12.947Z,21.80
2018-11-03T23:15:40.904Z,19.73
2018-11-03T23:18:09.288Z,19.20
2018-11-03T23:20:37.292Z,20.00
2018-11-03T23:23:05.485Z,18.10
2018-11-03T23:25:33.693Z,22.90
2018-11-03T23:28:01.728Z,16.40
2018-11-03T23:30:29.739Z,24.87
2018-11-03T23:32:58.045Z,27.33
2018-11-03T23:35:26.227Z,19.10
2018-11-03T23:37:54.245Z,24.13
2018-11-03T23:40:22.613Z,19.77
2018-11-03T23:42:50.612Z,20.33
2018-11-03T23:45:18.658Z,24.93
2018-11-03T23:47:47.048Z,26.23
2018-11-03T23:50:15.087Z,21.43
2018-11-03T23:52:46.444Z,24.27
2018-11-03T23:55:15.484Z,25.57
2018-11-03T23:57:43.525Z,20.10
